Naples, FL (34117)

7:22 PM EST on December 25, 2014 (GMT -0500)
Chrysler Florida Evaluation Center | Change Station
CLOSE
Current Station
Personal Weather Station
Location: Naples, FL
Elevation: 26 ft
Nearby Weather Stations

Elev 26 ft 26.17 °N, 81.50 °W | Updated 59 seconds ago

Mostly Cloudy
Mostly Cloudy
62.9 °F
Feels Like 62.9 °F
N
0.9
Wind Variable Wind from NE
Gusts 1.4 mph

Today
High -- | Low -- °F
--% Chance of Precip.
Yesterday
High -- | Low -- °F
Precip. -- in
7:11 AM 5:41 PM
Waxing Crescent, 20% visible
Pressure 30.16 in
Visibility 10.0 miles
Clouds Few 6000 ft
Scattered Clouds 7000 ft
Dew Point 58 °F
Humidity 83%
Rainfall 0.00 in
Snow Depth Not available.
UV 0 out of 12
Pollen 1.20 out of 12
Air Quality Not available.
Flu Activity Not available.
METAR KMKY 260015Z AUTO 06005KT 10SM FEW060 SCT070 18/13 A3016 RMK AO1

More Conditions Fewer Conditions

Pressure 30.16 in
Visibility 10.0 miles
Clouds Few 6000 ft
Scattered Clouds 7000 ft
Dew Point 58 °F
Humidity 83%
Rainfall 0.00 in
Snow Depth Not available.
UV 0 out of 12
Pollen 1.20 out of 12
Air Quality Not available.
Flu Activity Not available.
METAR KMKY 260015Z AUTO 06005KT 10SM FEW060 SCT070 18/13 A3016 RMK AO1

More Conditions Fewer Conditions

10-Day Weather Forecast

Almanac

Astronomy

Dec. 25, 2014 Rise Set
Actual Time
Civil Twilight
Nautical Twilight
Astronomical Twilight
Moon
Length of Visible Light
Length of Day
Tomorrow will be .
, % of the Moon is Illuminated

Today's Extremes

State Highs State Lows

Community

WunderPhotos

Upload Photos

1,780,474 photos uploaded!

WunderBlogs® & News

Nearby

Air Quality

  Air Quality AQ Index Pollutant
Not available.

Snow Depth

Station Depth Elevation

Earthquake Activity

City Distance Mag. Time & Date
Minimum magnitude displayed is 2.5.

Coastal Water Temperatures

Place Temperature

Nearby Weather Stations